sensor_id;sensor_type;location;lat;lon;timestamp;pressure;altitude;pressure_sealevel;temperature;humidity
22572;BME280;11452;53.368;14.658;2023-04-08T12:00:57;102019.75;;;15.62;60.17
22572;BME280;11452;53.368;14.658;2023-04-08T12:06:03;102010.47;;;13.99;63.18
22572;BME280;11452;53.368;14.658;2023-04-08T12:11:12;102007.45;;;13.88;64.58
22572;BME280;11452;53.368;14.658;2023-04-08T12:16:21;102011.55;;;13.59;64.65
22572;BME280;11452;53.368;14.658;2023-04-08T12:21:26;102008.80;;;13.61;65.12
22572;BME280;11452;53.368;14.658;2023-04-08T12:26:32;102004.30;;;13.97;65.67
22572;BME280;11452;53.368;14.658;2023-04-08T12:31:37;102001.32;;;14.20;66.25
22572;BME280;11452;53.368;14.658;2023-04-08T12:36:43;102005.68;;;13.78;63.26
22572;BME280;11452;53.368;14.658;2023-04-08T12:41:49;101998.61;;;13.21;64.70
22572;BME280;11452;53.368;14.658;2023-04-08T12:46:55;102000.47;;;13.29;65.33
22572;BME280;11452;53.368;14.658;2023-04-08T12:52:02;102001.20;;;13.33;65.02
22572;BME280;11452;53.368;14.658;2023-04-08T12:57:08;101993.83;;;13.28;65.28
22572;BME280;11452;53.368;14.658;2023-04-08T13:02:14;101996.51;;;13.46;65.27
22572;BME280;11452;53.368;14.658;2023-04-08T13:07:20;101882.52;;;12.97;66.18
22572;BME280;11452;53.368;14.658;2023-04-08T13:12:25;101983.73;;;13.88;65.03
22572;BME280;11452;53.368;14.658;2023-04-08T13:17:33;101988.97;;;13.63;65.12
22572;BME280;11452;53.368;14.658;2023-04-08T13:22:39;101988.31;;;13.49;64.70
22572;BME280;11452;53.368;14.658;2023-04-08T13:27:45;101984.69;;;13.59;64.85
22572;BME280;11452;53.368;14.658;2023-04-08T13:32:51;101983.01;;;13.48;64.42
22572;BME280;11452;53.368;14.658;2023-04-08T13:37:56;101979.61;;;13.72;65.32
22572;BME280;11452;53.368;14.658;2023-04-08T13:43:02;101981.84;;;13.90;64.47
22572;BME280;11452;53.368;14.658;2023-04-08T13:48:08;101978.41;;;13.69;64.53
22572;BME280;11452;53.368;14.658;2023-04-08T13:53:13;101982.55;;;13.84;65.03
22572;BME280;11452;53.368;14.658;2023-04-08T13:58:21;101981.99;;;13.95;64.84
22572;BME280;11452;53.368;14.658;2023-04-08T14:03:28;101973.40;;;14.06;63.84
22572;BME280;11452;53.368;14.658;2023-04-08T14:08:33;101978.86;;;14.39;64.81
22572;BME280;11452;53.368;14.658;2023-04-08T14:13:39;101977.28;;;14.26;62.09
22572;BME280;11452;53.368;14.658;2023-04-08T14:18:45;101969.84;;;14.05;62.84
22572;BME280;11452;53.368;14.658;2023-04-08T14:23:50;101975.07;;;14.08;63.56
22572;BME280;11452;53.368;14.658;2023-04-08T14:28:56;101971.50;;;14.51;64.42
22572;BME280;11452;53.368;14.658;2023-04-08T14:34:02;101973.33;;;14.59;62.92
22572;BME280;11452;53.368;14.658;2023-04-08T14:39:08;101974.27;;;14.49;62.06
22572;BME280;11452;53.368;14.658;2023-04-08T14:44:15;101987.73;;;14.91;63.08
22572;BME280;11452;53.368;14.658;2023-04-08T14:49:21;101985.03;;;14.49;61.34
22572;BME280;11452;53.368;14.658;2023-04-08T14:54:26;101977.12;;;14.55;62.00
22572;BME280;11452;53.368;14.658;2023-04-08T14:59:32;101983.64;;;14.42;61.05
22572;BME280;11452;53.368;14.658;2023-04-08T15:04:37;101971.27;;;14.55;61.35
22572;BME280;11452;53.368;14.658;2023-04-08T15:09:43;101976.64;;;14.38;60.65
22572;BME280;11452;53.368;14.658;2023-04-08T15:14:48;101969.21;;;14.52;61.24
22572;BME280;11452;53.368;14.658;2023-04-08T15:19:54;101983.30;;;14.48;61.79
22572;BME280;11452;53.368;14.658;2023-04-08T15:25:00;101967.41;;;14.09;61.13
22572;BME280;11452;53.368;14.658;2023-04-08T15:30:08;101966.81;;;14.11;61.75
22572;BME280;11452;53.368;14.658;2023-04-08T15:35:15;101973.41;;;14.23;61.99
22572;BME280;11452;53.368;14.658;2023-04-08T15:40:21;101978.70;;;14.25;62.01
22572;BME280;11452;53.368;14.658;2023-04-08T15:45:26;101977.09;;;13.86;62.32
22572;BME280;11452;53.368;14.658;2023-04-08T15:50:32;101980.19;;;13.60;62.23
22572;BME280;11452;53.368;14.658;2023-04-08T15:55:39;101988.90;;;13.65;63.61
22572;BME280;11452;53.368;14.658;2023-04-08T16:00:44;101993.61;;;13.51;64.14
22572;BME280;11452;53.368;14.658;2023-04-08T16:05:50;102000.66;;;13.35;63.51
22572;BME280;11452;53.368;14.658;2023-04-08T16:11:00;101996.49;;;13.74;64.21
22572;BME280;11452;53.368;14.658;2023-04-08T16:16:09;101997.65;;;13.60;64.87
22572;BME280;11452;53.368;14.658;2023-04-08T16:21:16;101997.56;;;13.53;63.80
22572;BME280;11452;53.368;14.658;2023-04-08T16:26:22;102000.75;;;13.42;64.63
22572;BME280;11452;53.368;14.658;2023-04-08T16:31:27;102000.34;;;13.41;64.55
22572;BME280;11452;53.368;14.658;2023-04-08T16:36:34;102003.17;;;13.84;65.03
22572;BME280;11452;53.368;14.658;2023-04-08T16:41:41;102007.67;;;13.37;63.90
22572;BME280;11452;53.368;14.658;2023-04-08T16:46:47;102005.45;;;13.18;64.11
22572;BME280;11452;53.368;14.658;2023-04-08T16:51:52;102014.72;;;13.11;64.07
22572;BME280;11452;53.368;14.658;2023-04-08T16:56:59;102020.22;;;12.79;64.49
22572;BME280;11452;53.368;14.658;2023-04-08T17:02:05;102019.81;;;12.68;64.49
22572;BME280;11452;53.368;14.658;2023-04-08T17:07:11;102024.97;;;12.22;64.82
22572;BME280;11452;53.368;14.658;2023-04-08T17:12:18;102037.47;;;12.11;65.51
22572;BME280;11452;53.368;14.658;2023-04-08T17:17:24;102049.74;;;11.85;65.81
22572;BME280;11452;53.368;14.658;2023-04-08T17:22:29;102057.05;;;11.46;66.66
22572;BME280;11452;53.368;14.658;2023-04-08T17:27:35;102060.05;;;11.14;67.43
22572;BME280;11452;53.368;14.658;2023-04-08T17:32:41;102065.39;;;11.02;68.16
22572;BME280;11452;53.368;14.658;2023-04-08T17:37:46;102072.44;;;11.04;68.40
22572;BME280;11452;53.368;14.658;2023-04-08T17:42:53;102083.92;;;10.95;68.50
22572;BME280;11452;53.368;14.658;2023-04-08T17:48:00;102084.99;;;10.91;68.91
22572;BME280;11452;53.368;14.658;2023-04-08T17:53:07;102081.81;;;10.80;69.16
22572;BME280;11452;53.368;14.658;2023-04-08T17:58:13;102093.71;;;10.58;69.56
22572;BME280;11452;53.368;14.658;2023-04-08T18:03:19;102103.64;;;10.41;70.52
22572;BME280;11452;53.368;14.658;2023-04-08T18:08:25;102106.12;;;10.34;71.00
22572;BME280;11452;53.368;14.658;2023-04-08T18:13:31;102115.55;;;10.18;71.55
22572;BME280;11452;53.368;14.658;2023-04-08T18:18:36;102126.50;;;10.23;71.96
22572;BME280;11452;53.368;14.658;2023-04-08T18:23:42;102129.00;;;10.15;72.07
22572;BME280;11452;53.368;14.658;2023-04-08T18:28:49;102148.66;;;10.12;72.49
22572;BME280;11452;53.368;14.658;2023-04-08T18:33:54;102141.00;;;10.01;72.51
22572;BME280;11452;53.368;14.658;2023-04-08T18:39:01;102141.75;;;10.05;72.97
22572;BME280;11452;53.368;14.658;2023-04-08T18:44:08;102145.63;;;10.10;73.00
22572;BME280;11452;53.368;14.658;2023-04-08T18:49:14;102155.22;;;9.87;73.12
22572;BME280;11452;53.368;14.658;2023-04-08T18:54:20;102157.59;;;9.83;73.54
22572;BME280;11452;53.368;14.658;2023-04-08T18:59:26;102157.84;;;9.89;73.52
22572;BME280;11452;53.368;14.658;2023-04-08T19:04:33;102170.95;;;9.83;73.34
22572;BME280;11452;53.368;14.658;2023-04-08T19:09:38;102166.73;;;9.60;73.56
22572;BME280;11452;53.368;14.658;2023-04-08T19:14:44;102168.73;;;9.52;74.06
22572;BME280;11452;53.368;14.658;2023-04-08T19:19:49;102167.82;;;9.53;74.24
22572;BME280;11452;53.368;14.658;2023-04-08T19:24:55;102174.86;;;9.41;74.33
22572;BME280;11452;53.368;14.658;2023-04-08T19:30:01;102168.30;;;9.36;74.63
22572;BME280;11452;53.368;14.658;2023-04-08T19:35:09;102160.30;;;9.36;74.67
22572;BME280;11452;53.368;14.658;2023-04-08T19:40:14;102163.13;;;9.30;74.74
22572;BME280;11452;53.368;14.658;2023-04-08T19:45:20;102157.53;;;9.24;75.04
22572;BME280;11452;53.368;14.658;2023-04-08T19:50:25;102155.90;;;9.19;75.01
22572;BME280;11452;53.368;14.658;2023-04-08T19:55:31;102156.85;;;9.16;75.31
22572;BME280;11452;53.368;14.658;2023-04-08T20:00:38;102163.91;;;9.19;75.36
22572;BME280;11452;53.368;14.658;2023-04-08T20:05:45;102160.40;;;9.00;75.63
22572;BME280;11452;53.368;14.658;2023-04-08T20:10:51;102154.72;;;8.96;75.81
22572;BME280;11452;53.368;14.658;2023-04-08T20:15:57;102157.89;;;9.11;76.35
22572;BME280;11452;53.368;14.658;2023-04-08T20:21:03;102161.35;;;9.14;76.26
22572;BME280;11452;53.368;14.658;2023-04-08T20:26:11;102159.22;;;9.11;76.13
22572;BME280;11452;53.368;14.658;2023-04-08T20:31:16;102162.53;;;9.04;76.29
22572;BME280;11452;53.368;14.658;2023-04-08T20:36:23;102161.09;;;8.91;76.37
22572;BME280;11452;53.368;14.658;2023-04-08T20:41:28;102161.36;;;8.98;76.65
22572;BME280;11452;53.368;14.658;2023-04-08T20:46:35;102160.66;;;9.08;76.86
22572;BME280;11452;53.368;14.658;2023-04-08T20:51:41;102164.05;;;8.96;76.72
22572;BME280;11452;53.368;14.658;2023-04-08T20:56:47;102168.55;;;8.94;77.16
22572;BME280;11452;53.368;14.658;2023-04-08T21:01:52;102174.69;;;8.98;77.20
22572;BME280;11452;53.368;14.658;2023-04-08T21:06:58;102175.60;;;9.13;77.52
22572;BME280;11452;53.368;14.658;2023-04-08T21:12:04;102176.09;;;9.11;77.16
22572;BME280;11452;53.368;14.658;2023-04-08T21:17:10;102183.88;;;9.20;77.79
22572;BME280;11452;53.368;14.658;2023-04-08T21:22:16;102183.25;;;9.27;77.09
22572;BME280;11452;53.368;14.658;2023-04-08T21:27:22;102177.80;;;9.30;77.75
22572;BME280;11452;53.368;14.658;2023-04-08T21:32:27;102180.88;;;9.47;77.58
22572;BME280;11452;53.368;14.658;2023-04-08T21:37:34;102184.00;;;9.47;77.38
22572;BME280;11452;53.368;14.658;2023-04-08T21:42:40;102185.19;;;9.36;77.17
22572;BME280;11452;53.368;14.658;2023-04-08T21:47:46;102189.53;;;9.41;77.20
22572;BME280;11452;53.368;14.658;2023-04-08T21:52:53;102181.69;;;9.34;76.98
22572;BME280;11452;53.368;14.658;2023-04-08T21:57:58;102179.95;;;9.17;77.17
22572;BME280;11452;53.368;14.658;2023-04-08T22:03:04;102180.70;;;9.22;77.52
22572;BME280;11452;53.368;14.658;2023-04-08T22:08:11;102186.98;;;9.36;77.74
22572;BME280;11452;53.368;14.658;2023-04-08T22:13:16;102187.10;;;9.31;77.18
22572;BME280;11452;53.368;14.658;2023-04-08T22:18:23;102181.50;;;9.26;77.46
22572;BME280;11452;53.368;14.658;2023-04-08T22:23:29;102175.11;;;9.15;77.12
22572;BME280;11452;53.368;14.658;2023-04-08T22:28:35;102173.02;;;9.10;77.68
22572;BME280;11452;53.368;14.658;2023-04-08T22:33:41;102167.22;;;8.94;77.31
22572;BME280;11452;53.368;14.658;2023-04-08T22:38:46;102169.84;;;8.96;78.30
22572;BME280;11452;53.368;14.658;2023-04-08T22:43:52;102172.35;;;8.86;77.95
22572;BME280;11452;53.368;14.658;2023-04-08T22:48:57;102166.18;;;8.84;78.48
22572;BME280;11452;53.368;14.658;2023-04-08T22:54:03;102163.02;;;8.86;78.50
22572;BME280;11452;53.368;14.658;2023-04-08T22:59:09;102158.64;;;8.83;78.48
22572;BME280;11452;53.368;14.658;2023-04-08T23:04:14;102157.56;;;8.73;78.68
22572;BME280;11452;53.368;14.658;2023-04-08T23:09:20;102168.16;;;8.76;78.96
22572;BME280;11452;53.368;14.658;2023-04-08T23:14:27;102169.84;;;8.80;79.06
22572;BME280;11452;53.368;14.658;2023-04-08T23:19:34;102173.91;;;8.77;78.95
22572;BME280;11452;53.368;14.658;2023-04-08T23:24:40;102177.06;;;8.75;78.91
22572;BME280;11452;53.368;14.658;2023-04-08T23:29:46;102177.73;;;8.66;79.50
22572;BME280;11452;53.368;14.658;2023-04-08T23:34:51;102172.86;;;8.66;79.84
22572;BME280;11452;53.368;14.658;2023-04-08T23:39:57;102177.62;;;8.71;79.44
22572;BME280;11452;53.368;14.658;2023-04-08T23:45:04;102171.73;;;8.57;79.75
22572;BME280;11452;53.368;14.658;2023-04-08T23:50:09;102179.34;;;8.37;79.67
22572;BME280;11452;53.368;14.658;2023-04-08T23:55:15;102170.99;;;8.34;80.83
